sensor_id;sensor_type;location;lat;lon;timestamp;pressure;altitude;pressure_sealevel;temperature;humidity
29815;BME280;16708;50.426;7.664;2023-05-20T00:00:31;991.61;;;13.53;99.93
29815;BME280;16708;50.426;7.664;2023-05-20T00:05:25;991.61;;;13.53;100.00
29815;BME280;16708;50.426;7.664;2023-05-20T00:10:19;991.55;;;13.58;100.00
29815;BME280;16708;50.426;7.664;2023-05-20T00:15:14;991.53;;;13.58;100.00
29815;BME280;16708;50.426;7.664;2023-05-20T00:20:08;991.55;;;13.55;100.00
29815;BME280;16708;50.426;7.664;2023-05-20T00:25:03;991.45;;;13.45;100.00
29815;BME280;16708;50.426;7.664;2023-05-20T00:29:57;991.45;;;13.45;100.00
29815;BME280;16708;50.426;7.664;2023-05-20T00:34:52;991.40;;;13.47;100.00
29815;BME280;16708;50.426;7.664;2023-05-20T00:39:46;991.38;;;13.37;100.00
29815;BME280;16708;50.426;7.664;2023-05-20T00:44:41;991.36;;;13.38;100.00
29815;BME280;16708;50.426;7.664;2023-05-20T00:49:35;991.42;;;13.19;100.00
29815;BME280;16708;50.426;7.664;2023-05-20T00:54:28;991.41;;;13.28;100.00
29815;BME280;16708;50.426;7.664;2023-05-20T00:59:23;991.42;;;13.23;100.00
29815;BME280;16708;50.426;7.664;2023-05-20T01:04:16;991.37;;;13.16;100.00
29815;BME280;16708;50.426;7.664;2023-05-20T01:09:10;991.34;;;13.05;100.00
29815;BME280;16708;50.426;7.664;2023-05-20T01:14:04;991.32;;;13.02;100.00
29815;BME280;16708;50.426;7.664;2023-05-20T01:18:58;991.32;;;12.96;100.00
29815;BME280;16708;50.426;7.664;2023-05-20T01:23:52;991.25;;;12.71;100.00
29815;BME280;16708;50.426;7.664;2023-05-20T01:28:47;991.32;;;12.42;100.00
29815;BME280;16708;50.426;7.664;2023-05-20T01:33:41;991.21;;;12.50;100.00
29815;BME280;16708;50.426;7.664;2023-05-20T01:38:35;991.25;;;12.47;100.00
29815;BME280;16708;50.426;7.664;2023-05-20T01:43:28;991.17;;;12.43;100.00
29815;BME280;16708;50.426;7.664;2023-05-20T01:48:22;991.22;;;12.45;100.00
29815;BME280;16708;50.426;7.664;2023-05-20T01:53:16;991.14;;;12.26;100.00
29815;BME280;16708;50.426;7.664;2023-05-20T01:58:10;991.15;;;12.24;100.00
29815;BME280;16708;50.426;7.664;2023-05-20T02:03:04;991.17;;;12.22;100.00
29815;BME280;16708;50.426;7.664;2023-05-20T02:07:58;991.12;;;12.21;100.00
29815;BME280;16708;50.426;7.664;2023-05-20T02:12:53;991.19;;;12.25;100.00
29815;BME280;16708;50.426;7.664;2023-05-20T02:17:47;991.12;;;12.31;100.00
29815;BME280;16708;50.426;7.664;2023-05-20T02:22:42;991.20;;;12.21;100.00
29815;BME280;16708;50.426;7.664;2023-05-20T02:27:36;991.17;;;12.00;100.00
29815;BME280;16708;50.426;7.664;2023-05-20T02:32:31;991.06;;;11.88;100.00
29815;BME280;16708;50.426;7.664;2023-05-20T02:37:25;991.12;;;11.92;100.00
29815;BME280;16708;50.426;7.664;2023-05-20T02:42:19;991.00;;;12.08;100.00
29815;BME280;16708;50.426;7.664;2023-05-20T02:47:12;990.98;;;12.29;100.00
29815;BME280;16708;50.426;7.664;2023-05-20T02:52:07;990.89;;;12.40;100.00
29815;BME280;16708;50.426;7.664;2023-05-20T02:57:01;990.91;;;12.53;100.00
29815;BME280;16708;50.426;7.664;2023-05-20T03:01:56;990.90;;;12.61;100.00
29815;BME280;16708;50.426;7.664;2023-05-20T03:06:50;990.85;;;12.63;100.00
29815;BME280;16708;50.426;7.664;2023-05-20T03:11:45;990.84;;;12.56;100.00
29815;BME280;16708;50.426;7.664;2023-05-20T03:16:39;990.87;;;12.46;100.00
29815;BME280;16708;50.426;7.664;2023-05-20T03:21:33;990.87;;;12.43;100.00
29815;BME280;16708;50.426;7.664;2023-05-20T03:26:28;990.94;;;12.27;100.00
29815;BME280;16708;50.426;7.664;2023-05-20T03:31:22;990.90;;;12.45;100.00
29815;BME280;16708;50.426;7.664;2023-05-20T03:36:16;990.92;;;12.59;100.00
29815;BME280;16708;50.426;7.664;2023-05-20T03:41:10;990.94;;;12.54;100.00
29815;BME280;16708;50.426;7.664;2023-05-20T03:46:04;991.00;;;12.31;100.00
29815;BME280;16708;50.426;7.664;2023-05-20T03:50:58;990.75;;;12.47;100.00
29815;BME280;16708;50.426;7.664;2023-05-20T03:55:53;990.86;;;12.63;100.00
29815;BME280;16708;50.426;7.664;2023-05-20T04:00:47;990.90;;;12.69;100.00
29815;BME280;16708;50.426;7.664;2023-05-20T04:05:40;990.94;;;12.68;100.00
29815;BME280;16708;50.426;7.664;2023-05-20T04:10:34;990.90;;;12.39;100.00
29815;BME280;16708;50.426;7.664;2023-05-20T04:15:29;990.94;;;12.41;100.00
29815;BME280;16708;50.426;7.664;2023-05-20T04:20:23;990.86;;;12.32;100.00
29815;BME280;16708;50.426;7.664;2023-05-20T04:25:18;990.89;;;12.41;100.00
29815;BME280;16708;50.426;7.664;2023-05-20T04:30:12;990.87;;;12.61;100.00
29815;BME280;16708;50.426;7.664;2023-05-20T04:35:07;990.89;;;12.82;100.00
29815;BME280;16708;50.426;7.664;2023-05-20T04:40:01;990.90;;;12.81;100.00
29815;BME280;16708;50.426;7.664;2023-05-20T04:44:55;990.90;;;12.69;100.00
29815;BME280;16708;50.426;7.664;2023-05-20T04:49:50;990.95;;;12.93;100.00
29815;BME280;16708;50.426;7.664;2023-05-20T04:54:43;990.91;;;13.06;100.00
29815;BME280;16708;50.426;7.664;2023-05-20T04:59:37;990.89;;;13.17;100.00
29815;BME280;16708;50.426;7.664;2023-05-20T05:04:29;990.81;;;13.28;100.00
29815;BME280;16708;50.426;7.664;2023-05-20T05:09:23;990.82;;;13.53;100.00
29815;BME280;16708;50.426;7.664;2023-05-20T05:14:18;990.72;;;13.60;100.00
29815;BME280;16708;50.426;7.664;2023-05-20T05:19:12;990.81;;;13.65;100.00
29815;BME280;16708;50.426;7.664;2023-05-20T05:24:06;990.83;;;13.79;100.00
29815;BME280;16708;50.426;7.664;2023-05-20T05:29:00;990.76;;;13.97;100.00
29815;BME280;16708;50.426;7.664;2023-05-20T05:33:55;990.72;;;13.96;100.00
29815;BME280;16708;50.426;7.664;2023-05-20T05:38:49;990.71;;;14.26;100.00
29815;BME280;16708;50.426;7.664;2023-05-20T05:43:43;990.75;;;14.52;100.00
29815;BME280;16708;50.426;7.664;2023-05-20T05:48:38;990.74;;;14.95;100.00
29815;BME280;16708;50.426;7.664;2023-05-20T05:53:31;990.67;;;14.97;100.00
29815;BME280;16708;50.426;7.664;2023-05-20T05:58:27;990.81;;;15.08;100.00
29815;BME280;16708;50.426;7.664;2023-05-20T06:03:20;990.71;;;15.15;100.00
29815;BME280;16708;50.426;7.664;2023-05-20T06:08:15;990.71;;;15.13;100.00
29815;BME280;16708;50.426;7.664;2023-05-20T06:13:09;990.72;;;15.55;100.00
29815;BME280;16708;50.426;7.664;2023-05-20T06:18:04;990.56;;;15.36;100.00
29815;BME280;16708;50.426;7.664;2023-05-20T06:22:58;990.52;;;15.48;100.00
29815;BME280;16708;50.426;7.664;2023-05-20T06:27:52;990.58;;;15.76;100.00
29815;BME280;16708;50.426;7.664;2023-05-20T06:32:46;990.60;;;15.98;100.00
29815;BME280;16708;50.426;7.664;2023-05-20T06:37:40;990.48;;;16.51;100.00
29815;BME280;16708;50.426;7.664;2023-05-20T06:42:35;990.38;;;16.08;100.00
29815;BME280;16708;50.426;7.664;2023-05-20T06:47:29;990.45;;;16.00;100.00
29815;BME280;16708;50.426;7.664;2023-05-20T06:52:23;990.41;;;16.08;100.00
29815;BME280;16708;50.426;7.664;2023-05-20T06:57:18;990.35;;;15.73;100.00
29815;BME280;16708;50.426;7.664;2023-05-20T07:02:12;990.40;;;15.85;100.00
29815;BME280;16708;50.426;7.664;2023-05-20T07:07:06;990.35;;;16.21;100.00
29815;BME280;16708;50.426;7.664;2023-05-20T07:12:01;990.36;;;16.09;100.00
29815;BME280;16708;50.426;7.664;2023-05-20T07:16:56;990.37;;;17.13;100.00
29815;BME280;16708;50.426;7.664;2023-05-20T07:21:50;990.40;;;17.55;100.00
29815;BME280;16708;50.426;7.664;2023-05-20T07:26:45;990.32;;;17.12;100.00
29815;BME280;16708;50.426;7.664;2023-05-20T07:31:37;990.51;;;17.43;100.00
29815;BME280;16708;50.426;7.664;2023-05-20T07:36:32;990.43;;;16.66;100.00
29815;BME280;16708;50.426;7.664;2023-05-20T07:41:26;990.41;;;16.47;100.00
29815;BME280;16708;50.426;7.664;2023-05-20T07:46:20;990.36;;;16.50;100.00
29815;BME280;16708;50.426;7.664;2023-05-20T07:51:15;990.38;;;16.50;100.00
29815;BME280;16708;50.426;7.664;2023-05-20T07:56:09;990.33;;;16.10;100.00
29815;BME280;16708;50.426;7.664;2023-05-20T08:01:03;990.20;;;16.45;100.00
29815;BME280;16708;50.426;7.664;2023-05-20T08:05:58;990.28;;;16.29;100.00
29815;BME280;16708;50.426;7.664;2023-05-20T08:10:53;990.24;;;16.32;100.00
29815;BME280;16708;50.426;7.664;2023-05-20T08:15:47;990.22;;;16.48;100.00
29815;BME280;16708;50.426;7.664;2023-05-20T08:20:41;990.18;;;16.70;100.00
29815;BME280;16708;50.426;7.664;2023-05-20T08:25:36;990.17;;;16.76;100.00
29815;BME280;16708;50.426;7.664;2023-05-20T08:30:30;990.19;;;16.88;100.00
29815;BME280;16708;50.426;7.664;2023-05-20T08:35:25;990.22;;;17.35;100.00
29815;BME280;16708;50.426;7.664;2023-05-20T08:40:20;990.12;;;17.72;100.00
29815;BME280;16708;50.426;7.664;2023-05-20T08:45:15;990.07;;;17.75;100.00
29815;BME280;16708;50.426;7.664;2023-05-20T08:50:08;990.13;;;17.93;100.00
29815;BME280;16708;50.426;7.664;2023-05-20T08:55:03;990.10;;;17.11;100.00
29815;BME280;16708;50.426;7.664;2023-05-20T08:59:57;990.04;;;17.94;100.00
29815;BME280;16708;50.426;7.664;2023-05-20T09:04:52;990.02;;;17.83;100.00
29815;BME280;16708;50.426;7.664;2023-05-20T09:09:46;990.14;;;18.36;100.00
29815;BME280;16708;50.426;7.664;2023-05-20T09:14:39;989.97;;;18.29;100.00
29815;BME280;16708;50.426;7.664;2023-05-20T09:19:34;990.07;;;18.30;99.99
29815;BME280;16708;50.426;7.664;2023-05-20T09:24:28;990.11;;;18.89;98.46
29815;BME280;16708;50.426;7.664;2023-05-20T09:29:22;990.03;;;19.21;91.03
29815;BME280;16708;50.426;7.664;2023-05-20T09:34:17;990.00;;;18.43;95.95
29815;BME280;16708;50.426;7.664;2023-05-20T09:39:11;990.08;;;18.55;99.54
29815;BME280;16708;50.426;7.664;2023-05-20T09:44:06;990.08;;;18.82;96.06
29815;BME280;16708;50.426;7.664;2023-05-20T09:49:00;990.09;;;19.15;94.58
29815;BME280;16708;50.426;7.664;2023-05-20T09:53:55;989.94;;;19.24;92.81
29815;BME280;16708;50.426;7.664;2023-05-20T09:58:49;989.97;;;19.36;93.55
29815;BME280;16708;50.426;7.664;2023-05-20T10:03:43;990.11;;;19.73;91.27
29815;BME280;16708;50.426;7.664;2023-05-20T10:08:37;989.98;;;19.41;88.40
29815;BME280;16708;50.426;7.664;2023-05-20T10:18:26;989.95;;;20.00;86.74
29815;BME280;16708;50.426;7.664;2023-05-20T10:23:21;989.89;;;19.79;82.21
29815;BME280;16708;50.426;7.664;2023-05-20T10:28:15;989.81;;;19.48;86.48
29815;BME280;16708;50.426;7.664;2023-05-20T10:33:10;989.89;;;19.22;93.77
29815;BME280;16708;50.426;7.664;2023-05-20T10:38:03;989.85;;;19.55;86.12
29815;BME280;16708;50.426;7.664;2023-05-20T10:42:57;989.88;;;20.71;82.12
29815;BME280;16708;50.426;7.664;2023-05-20T10:47:52;989.79;;;20.51;82.45
29815;BME280;16708;50.426;7.664;2023-05-20T10:52:47;989.75;;;22.84;62.10
29815;BME280;16708;50.426;7.664;2023-05-20T10:57:43;989.78;;;21.92;61.71
29815;BME280;16708;50.426;7.664;2023-05-20T11:02:38;989.80;;;21.05;73.65
29815;BME280;16708;50.426;7.664;2023-05-20T11:07:32;989.75;;;20.54;78.46
29815;BME280;16708;50.426;7.664;2023-05-20T11:12:25;989.79;;;20.78;78.00
29815;BME280;16708;50.426;7.664;2023-05-20T11:17:19;989.76;;;20.47;80.42
29815;BME280;16708;50.426;7.664;2023-05-20T11:22:13;989.72;;;20.37;80.02
29815;BME280;16708;50.426;7.664;2023-05-20T11:27:07;989.81;;;19.52;85.34
29815;BME280;16708;50.426;7.664;2023-05-20T11:32:00;989.75;;;19.34;87.05
29815;BME280;16708;50.426;7.664;2023-05-20T11:36:54;989.78;;;20.14;80.76
29815;BME280;16708;50.426;7.664;2023-05-20T11:41:49;989.67;;;19.13;88.65
29815;BME280;16708;50.426;7.664;2023-05-20T11:46:43;989.66;;;19.55;87.84
29815;BME280;16708;50.426;7.664;2023-05-20T11:51:38;989.57;;;19.62;85.90
29815;BME280;16708;50.426;7.664;2023-05-20T11:56:31;989.46;;;19.84;84.79
29815;BME280;16708;50.426;7.664;2023-05-20T12:01:26;989.51;;;19.68;87.77
29815;BME280;16708;50.426;7.664;2023-05-20T12:06:20;989.51;;;19.60;84.42
29815;BME280;16708;50.426;7.664;2023-05-20T12:11:14;989.39;;;19.51;86.22
29815;BME280;16708;50.426;7.664;2023-05-20T12:16:08;989.43;;;20.12;82.67
29815;BME280;16708;50.426;7.664;2023-05-20T12:21:03;989.33;;;20.30;78.64
29815;BME280;16708;50.426;7.664;2023-05-20T12:25:57;989.23;;;20.68;73.96
29815;BME280;16708;50.426;7.664;2023-05-20T12:30:52;989.14;;;22.31;60.64
29815;BME280;16708;50.426;7.664;2023-05-20T12:35:46;989.12;;;24.15;53.05
29815;BME280;16708;50.426;7.664;2023-05-20T12:40:42;989.13;;;25.04;51.58
29815;BME280;16708;50.426;7.664;2023-05-20T12:45:37;989.11;;;26.67;47.05
29815;BME280;16708;50.426;7.664;2023-05-20T12:50:33;989.06;;;25.00;48.47
29815;BME280;16708;50.426;7.664;2023-05-20T12:55:28;988.91;;;25.89;43.61
29815;BME280;16708;50.426;7.664;2023-05-20T13:00:23;988.96;;;27.89;40.80
29815;BME280;16708;50.426;7.664;2023-05-20T13:05:18;988.93;;;26.46;43.54
29815;BME280;16708;50.426;7.664;2023-05-20T13:10:12;988.89;;;23.18;52.24
29815;BME280;16708;50.426;7.664;2023-05-20T13:15:05;988.90;;;23.58;52.42
29815;BME280;16708;50.426;7.664;2023-05-20T13:19:59;988.88;;;25.43;46.43
29815;BME280;16708;50.426;7.664;2023-05-20T13:24:52;988.75;;;23.15;53.99
29815;BME280;16708;50.426;7.664;2023-05-20T13:29:46;988.79;;;26.23;43.73
29815;BME280;16708;50.426;7.664;2023-05-20T13:34:41;988.75;;;23.86;49.78
29815;BME280;16708;50.426;7.664;2023-05-20T13:39:34;988.69;;;26.02;45.04
29815;BME280;16708;50.426;7.664;2023-05-20T13:44:28;988.73;;;25.04;45.75
29815;BME280;16708;50.426;7.664;2023-05-20T13:49:23;988.65;;;23.73;47.86
29815;BME280;16708;50.426;7.664;2023-05-20T13:54:17;988.58;;;21.22;64.89
29815;BME280;16708;50.426;7.664;2023-05-20T13:59:10;988.53;;;20.93;68.49
29815;BME280;16708;50.426;7.664;2023-05-20T14:04:03;988.64;;;20.30;75.27
29815;BME280;16708;50.426;7.664;2023-05-20T14:08:57;988.55;;;20.46;71.21
29815;BME280;16708;50.426;7.664;2023-05-20T14:13:51;988.60;;;19.88;73.08
29815;BME280;16708;50.426;7.664;2023-05-20T14:18:44;988.65;;;20.32;72.96
29815;BME280;16708;50.426;7.664;2023-05-20T14:23:38;988.56;;;20.59;71.65
29815;BME280;16708;50.426;7.664;2023-05-20T14:28:32;988.53;;;20.55;71.70
29815;BME280;16708;50.426;7.664;2023-05-20T14:33:25;988.46;;;19.96;77.66
29815;BME280;16708;50.426;7.664;2023-05-20T14:38:18;988.56;;;20.36;73.91
29815;BME280;16708;50.426;7.664;2023-05-20T14:43:13;988.38;;;19.70;79.05
29815;BME280;16708;50.426;7.664;2023-05-20T14:48:07;988.51;;;19.57;81.76
29815;BME280;16708;50.426;7.664;2023-05-20T14:53:01;988.40;;;19.20;85.45
29815;BME280;16708;50.426;7.664;2023-05-20T14:57:56;988.45;;;19.23;81.94
29815;BME280;16708;50.426;7.664;2023-05-20T15:02:50;988.50;;;19.13;84.99
29815;BME280;16708;50.426;7.664;2023-05-20T15:07:44;988.42;;;19.52;82.48
29815;BME280;16708;50.426;7.664;2023-05-20T15:12:38;988.45;;;19.37;83.23
29815;BME280;16708;50.426;7.664;2023-05-20T15:17:33;988.41;;;21.37;66.50
29815;BME280;16708;50.426;7.664;2023-05-20T15:22:28;988.37;;;20.46;73.98
29815;BME280;16708;50.426;7.664;2023-05-20T15:27:22;988.39;;;20.07;78.21
29815;BME280;16708;50.426;7.664;2023-05-20T15:32:17;988.44;;;22.21;61.68
29815;BME280;16708;50.426;7.664;2023-05-20T15:37:12;988.42;;;21.75;65.44
29815;BME280;16708;50.426;7.664;2023-05-20T15:42:07;988.40;;;25.43;48.17
29815;BME280;16708;50.426;7.664;2023-05-20T15:47:02;988.34;;;24.95;45.68
29815;BME280;16708;50.426;7.664;2023-05-20T15:51:58;988.25;;;25.68;42.86
29815;BME280;16708;50.426;7.664;2023-05-20T15:56:53;988.33;;;26.39;41.54
29815;BME280;16708;50.426;7.664;2023-05-20T16:01:47;988.30;;;25.66;43.38
29815;BME280;16708;50.426;7.664;2023-05-20T16:06:42;988.31;;;23.77;48.57
29815;BME280;16708;50.426;7.664;2023-05-20T16:11:35;988.25;;;25.48;45.41
29815;BME280;16708;50.426;7.664;2023-05-20T16:16:30;988.21;;;23.76;47.54
29815;BME280;16708;50.426;7.664;2023-05-20T16:21:22;988.19;;;21.32;58.81
29815;BME280;16708;50.426;7.664;2023-05-20T16:26:16;988.05;;;20.88;63.83
29815;BME280;16708;50.426;7.664;2023-05-20T16:31:08;988.10;;;21.67;62.42
29815;BME280;16708;50.426;7.664;2023-05-20T16:36:02;988.10;;;21.25;67.35
29815;BME280;16708;50.426;7.664;2023-05-20T16:40:57;988.05;;;22.40;57.72
29815;BME280;16708;50.426;7.664;2023-05-20T16:45:50;988.31;;;22.68;60.24
29815;BME280;16708;50.426;7.664;2023-05-20T16:50:44;988.28;;;24.34;50.85
29815;BME280;16708;50.426;7.664;2023-05-20T16:55:39;988.13;;;23.71;52.55
29815;BME280;16708;50.426;7.664;2023-05-20T17:00:34;988.21;;;25.05;46.72
29815;BME280;16708;50.426;7.664;2023-05-20T17:05:28;988.08;;;25.69;45.20
29815;BME280;16708;50.426;7.664;2023-05-20T17:10:23;988.13;;;25.18;45.69
29815;BME280;16708;50.426;7.664;2023-05-20T17:15:15;988.21;;;23.20;51.31
29815;BME280;16708;50.426;7.664;2023-05-20T17:20:09;988.29;;;21.35;63.23
29815;BME280;16708;50.426;7.664;2023-05-20T17:25:03;988.38;;;20.33;76.42
29815;BME280;16708;50.426;7.664;2023-05-20T17:29:56;988.41;;;19.35;82.09
29815;BME280;16708;50.426;7.664;2023-05-20T17:34:50;988.45;;;21.23;69.73
29815;BME280;16708;50.426;7.664;2023-05-20T17:39:44;988.40;;;22.31;58.22
29815;BME280;16708;50.426;7.664;2023-05-20T17:44:39;988.39;;;20.78;67.51
29815;BME280;16708;50.426;7.664;2023-05-20T17:49:33;988.38;;;20.79;71.97
29815;BME280;16708;50.426;7.664;2023-05-20T17:54:27;988.40;;;21.31;65.75
29815;BME280;16708;50.426;7.664;2023-05-20T17:59:21;988.48;;;20.58;73.63
29815;BME280;16708;50.426;7.664;2023-05-20T18:04:15;988.48;;;19.13;89.22
29815;BME280;16708;50.426;7.664;2023-05-20T18:09:09;988.49;;;19.19;86.06
29815;BME280;16708;50.426;7.664;2023-05-20T18:14:03;988.41;;;20.90;75.79
29815;BME280;16708;50.426;7.664;2023-05-20T18:18:58;988.41;;;21.18;68.78
29815;BME280;16708;50.426;7.664;2023-05-20T18:23:53;988.36;;;21.36;68.04
29815;BME280;16708;50.426;7.664;2023-05-20T18:28:47;988.37;;;20.25;77.21
29815;BME280;16708;50.426;7.664;2023-05-20T18:33:41;988.37;;;19.43;86.29
29815;BME280;16708;50.426;7.664;2023-05-20T18:38:35;988.45;;;18.97;93.50
29815;BME280;16708;50.426;7.664;2023-05-20T18:43:29;988.42;;;18.87;90.98
29815;BME280;16708;50.426;7.664;2023-05-20T18:48:23;988.47;;;18.40;98.01
29815;BME280;16708;50.426;7.664;2023-05-20T18:53:17;988.49;;;18.09;100.00
29815;BME280;16708;50.426;7.664;2023-05-20T18:58:11;988.53;;;17.69;100.00
29815;BME280;16708;50.426;7.664;2023-05-20T19:03:06;988.51;;;17.34;100.00
29815;BME280;16708;50.426;7.664;2023-05-20T19:08:00;988.55;;;17.08;100.00
29815;BME280;16708;50.426;7.664;2023-05-20T19:12:54;988.58;;;16.90;100.00
29815;BME280;16708;50.426;7.664;2023-05-20T19:17:48;988.62;;;16.68;100.00
29815;BME280;16708;50.426;7.664;2023-05-20T19:22:39;988.55;;;16.48;100.00
29815;BME280;16708;50.426;7.664;2023-05-20T19:27:33;988.64;;;16.42;100.00
29815;BME280;16708;50.426;7.664;2023-05-20T19:32:27;988.69;;;16.35;100.00
29815;BME280;16708;50.426;7.664;2023-05-20T19:37:22;988.68;;;16.35;100.00
29815;BME280;16708;50.426;7.664;2023-05-20T19:42:16;988.66;;;16.28;100.00
29815;BME280;16708;50.426;7.664;2023-05-20T19:47:11;988.75;;;16.10;100.00
29815;BME280;16708;50.426;7.664;2023-05-20T19:52:05;988.71;;;15.85;100.00
29815;BME280;16708;50.426;7.664;2023-05-20T19:56:58;988.71;;;15.87;100.00
29815;BME280;16708;50.426;7.664;2023-05-20T20:01:53;988.59;;;15.89;100.00
29815;BME280;16708;50.426;7.664;2023-05-20T20:06:47;988.67;;;15.89;100.00
29815;BME280;16708;50.426;7.664;2023-05-20T20:11:41;988.61;;;15.66;100.00
29815;BME280;16708;50.426;7.664;2023-05-20T20:16:34;988.46;;;15.57;100.00
29815;BME280;16708;50.426;7.664;2023-05-20T20:21:29;988.42;;;15.37;100.00
29815;BME280;16708;50.426;7.664;2023-05-20T20:26:23;988.52;;;15.26;100.00
29815;BME280;16708;50.426;7.664;2023-05-20T20:31:17;988.52;;;15.15;100.00
29815;BME280;16708;50.426;7.664;2023-05-20T20:36:12;988.49;;;15.13;100.00
29815;BME280;16708;50.426;7.664;2023-05-20T20:41:05;988.40;;;14.95;100.00
29815;BME280;16708;50.426;7.664;2023-05-20T20:46:00;988.42;;;14.83;100.00
29815;BME280;16708;50.426;7.664;2023-05-20T20:50:54;988.43;;;14.83;100.00
29815;BME280;16708;50.426;7.664;2023-05-20T20:55:48;988.30;;;14.81;100.00
29815;BME280;16708;50.426;7.664;2023-05-20T21:00:42;988.24;;;14.80;100.00
29815;BME280;16708;50.426;7.664;2023-05-20T21:05:36;988.24;;;14.67;100.00
29815;BME280;16708;50.426;7.664;2023-05-20T21:10:31;988.19;;;14.56;100.00
29815;BME280;16708;50.426;7.664;2023-05-20T21:15:25;988.13;;;14.51;100.00
29815;BME280;16708;50.426;7.664;2023-05-20T21:20:20;988.16;;;14.54;100.00
29815;BME280;16708;50.426;7.664;2023-05-20T21:25:14;988.13;;;14.54;100.00
29815;BME280;16708;50.426;7.664;2023-05-20T21:30:09;988.03;;;14.61;100.00
29815;BME280;16708;50.426;7.664;2023-05-20T21:35:03;988.10;;;14.55;100.00
29815;BME280;16708;50.426;7.664;2023-05-20T21:39:56;988.06;;;14.50;100.00
29815;BME280;16708;50.426;7.664;2023-05-20T21:44:50;987.96;;;14.47;100.00
29815;BME280;16708;50.426;7.664;2023-05-20T21:49:44;988.01;;;14.50;100.00
29815;BME280;16708;50.426;7.664;2023-05-20T21:54:39;987.96;;;14.42;100.00
29815;BME280;16708;50.426;7.664;2023-05-20T21:59:34;987.86;;;14.25;100.00
29815;BME280;16708;50.426;7.664;2023-05-20T22:04:27;987.81;;;14.22;100.00
29815;BME280;16708;50.426;7.664;2023-05-20T22:09:21;987.81;;;14.09;100.00
29815;BME280;16708;50.426;7.664;2023-05-20T22:14:15;987.82;;;14.06;100.00
29815;BME280;16708;50.426;7.664;2023-05-20T22:19:10;987.72;;;14.02;100.00
29815;BME280;16708;50.426;7.664;2023-05-20T22:24:04;987.58;;;13.92;100.00
29815;BME280;16708;50.426;7.664;2023-05-20T22:28:58;987.63;;;13.90;100.00
29815;BME280;16708;50.426;7.664;2023-05-20T22:33:53;987.56;;;13.87;100.00
29815;BME280;16708;50.426;7.664;2023-05-20T22:38:47;987.59;;;13.81;100.00
29815;BME280;16708;50.426;7.664;2023-05-20T22:43:41;987.52;;;13.74;100.00
29815;BME280;16708;50.426;7.664;2023-05-20T22:48:35;987.51;;;13.64;100.00
29815;BME280;16708;50.426;7.664;2023-05-20T22:53:30;987.43;;;13.56;100.00
29815;BME280;16708;50.426;7.664;2023-05-20T22:58:24;987.39;;;13.47;100.00
29815;BME280;16708;50.426;7.664;2023-05-20T23:03:19;987.33;;;13.45;100.00
29815;BME280;16708;50.426;7.664;2023-05-20T23:08:14;987.31;;;13.37;100.00
29815;BME280;16708;50.426;7.664;2023-05-20T23:13:08;987.27;;;13.36;100.00
29815;BME280;16708;50.426;7.664;2023-05-20T23:18:02;987.19;;;13.25;100.00
29815;BME280;16708;50.426;7.664;2023-05-20T23:22:57;987.13;;;13.23;100.00
29815;BME280;16708;50.426;7.664;2023-05-20T23:27:51;987.11;;;13.17;100.00
29815;BME280;16708;50.426;7.664;2023-05-20T23:32:44;987.02;;;13.15;100.00
29815;BME280;16708;50.426;7.664;2023-05-20T23:37:39;986.97;;;13.15;100.00
29815;BME280;16708;50.426;7.664;2023-05-20T23:42:33;986.98;;;13.04;100.00
29815;BME280;16708;50.426;7.664;2023-05-20T23:47:28;987.00;;;12.99;100.00
29815;BME280;16708;50.426;7.664;2023-05-20T23:52:22;986.94;;;12.93;100.00
29815;BME280;16708;50.426;7.664;2023-05-20T23:57:15;986.88;;;12.85;100.00
